sensor_id;sensor_type;location;lat;lon;timestamp;temperature;humidity
42965;DHT22;28604;51.204;22.552;2023-06-22T00:02:14;23.90;75.70
42965;DHT22;28604;51.204;22.552;2023-06-22T00:04:40;23.90;75.50
42965;DHT22;28604;51.204;22.552;2023-06-22T00:07:06;24.00;75.40
42965;DHT22;28604;51.204;22.552;2023-06-22T00:09:32;24.00;75.30
42965;DHT22;28604;51.204;22.552;2023-06-22T00:11:59;24.00;75.30
42965;DHT22;28604;51.204;22.552;2023-06-22T00:14:32;24.00;75.30
42965;DHT22;28604;51.204;22.552;2023-06-22T00:16:58;24.00;75.10
42965;DHT22;28604;51.204;22.552;2023-06-22T00:19:24;24.10;74.50
42965;DHT22;28604;51.204;22.552;2023-06-22T00:21:51;24.10;74.80
42965;DHT22;28604;51.204;22.552;2023-06-22T00:24:21;24.10;74.60
42965;DHT22;28604;51.204;22.552;2023-06-22T00:26:50;24.10;75.20
42965;DHT22;28604;51.204;22.552;2023-06-22T00:29:16;24.10;75.20
42965;DHT22;28604;51.204;22.552;2023-06-22T00:31:44;24.10;74.80
42965;DHT22;28604;51.204;22.552;2023-06-22T00:34:10;24.10;75.10
42965;DHT22;28604;51.204;22.552;2023-06-22T00:36:36;24.00;76.00
42965;DHT22;28604;51.204;22.552;2023-06-22T00:39:03;24.10;76.00
42965;DHT22;28604;51.204;22.552;2023-06-22T00:41:30;24.00;75.90
42965;DHT22;28604;51.204;22.552;2023-06-22T00:44:03;24.10;76.20
42965;DHT22;28604;51.204;22.552;2023-06-22T00:46:31;24.00;76.10
42965;DHT22;28604;51.204;22.552;2023-06-22T00:48:57;23.90;76.00
42965;DHT22;28604;51.204;22.552;2023-06-22T00:51:23;23.90;76.40
42965;DHT22;28604;51.204;22.552;2023-06-22T00:53:51;23.80;76.20
42965;DHT22;28604;51.204;22.552;2023-06-22T00:56:19;23.90;75.90
42965;DHT22;28604;51.204;22.552;2023-06-22T00:58:46;23.90;75.80
42965;DHT22;28604;51.204;22.552;2023-06-22T01:01:13;23.90;75.80
42965;DHT22;28604;51.204;22.552;2023-06-22T01:03:39;23.80;76.20
42965;DHT22;28604;51.204;22.552;2023-06-22T01:06:15;23.80;76.60
42965;DHT22;28604;51.204;22.552;2023-06-22T01:09:06;23.80;76.80
42965;DHT22;28604;51.204;22.552;2023-06-22T01:11:45;23.80;77.30
42965;DHT22;28604;51.204;22.552;2023-06-22T01:14:23;23.60;77.00
42965;DHT22;28604;51.204;22.552;2023-06-22T01:16:51;23.60;77.20
42965;DHT22;28604;51.204;22.552;2023-06-22T01:22:06;23.60;77.00
42965;DHT22;28604;51.204;22.552;2023-06-22T01:25:08;23.60;77.30
42965;DHT22;28604;51.204;22.552;2023-06-22T01:30:16;23.40;78.80
42965;DHT22;28604;51.204;22.552;2023-06-22T01:32:44;23.30;78.60
42965;DHT22;28604;51.204;22.552;2023-06-22T01:35:12;23.40;78.30
42965;DHT22;28604;51.204;22.552;2023-06-22T01:37:39;23.30;78.30
42965;DHT22;28604;51.204;22.552;2023-06-22T01:40:08;23.30;77.90
42965;DHT22;28604;51.204;22.552;2023-06-22T01:42:36;23.30;78.00
42965;DHT22;28604;51.204;22.552;2023-06-22T01:45:02;23.20;78.80
42965;DHT22;28604;51.204;22.552;2023-06-22T01:47:30;23.20;79.00
42965;DHT22;28604;51.204;22.552;2023-06-22T01:49:56;23.10;78.80
42965;DHT22;28604;51.204;22.552;2023-06-22T01:52:22;23.10;78.60
42965;DHT22;28604;51.204;22.552;2023-06-22T01:54:49;23.10;78.50
42965;DHT22;28604;51.204;22.552;2023-06-22T01:57:15;23.20;78.50
42965;DHT22;28604;51.204;22.552;2023-06-22T02:02:13;23.20;78.20
42965;DHT22;28604;51.204;22.552;2023-06-22T02:04:52;23.10;78.30
42965;DHT22;28604;51.204;22.552;2023-06-22T02:07:23;23.10;78.30
42965;DHT22;28604;51.204;22.552;2023-06-22T02:09:51;23.10;78.20
42965;DHT22;28604;51.204;22.552;2023-06-22T02:12:22;23.10;78.00
42965;DHT22;28604;51.204;22.552;2023-06-22T02:14:49;23.10;78.00
42965;DHT22;28604;51.204;22.552;2023-06-22T02:17:18;23.10;78.00
42965;DHT22;28604;51.204;22.552;2023-06-22T02:19:44;23.00;77.90
42965;DHT22;28604;51.204;22.552;2023-06-22T02:22:10;23.00;77.80
42965;DHT22;28604;51.204;22.552;2023-06-22T02:24:36;23.00;78.20
42965;DHT22;28604;51.204;22.552;2023-06-22T02:27:02;23.00;78.20
42965;DHT22;28604;51.204;22.552;2023-06-22T02:29:31;23.00;78.20
42965;DHT22;28604;51.204;22.552;2023-06-22T02:31:58;23.00;77.90
42965;DHT22;28604;51.204;22.552;2023-06-22T02:34:24;23.00;78.20
42965;DHT22;28604;51.204;22.552;2023-06-22T02:36:51;22.90;79.10
42965;DHT22;28604;51.204;22.552;2023-06-22T02:39:21;22.90;79.30
42965;DHT22;28604;51.204;22.552;2023-06-22T02:41:54;22.90;79.60
42965;DHT22;28604;51.204;22.552;2023-06-22T02:44:22;22.90;79.70
42965;DHT22;28604;51.204;22.552;2023-06-22T02:46:48;22.90;79.90
42965;DHT22;28604;51.204;22.552;2023-06-22T02:49:15;22.90;79.90
42965;DHT22;28604;51.204;22.552;2023-06-22T02:51:46;22.80;80.00
42965;DHT22;28604;51.204;22.552;2023-06-22T02:54:13;22.80;80.10
42965;DHT22;28604;51.204;22.552;2023-06-22T02:56:41;22.80;80.10
42965;DHT22;28604;51.204;22.552;2023-06-22T02:59:10;22.80;80.00
42965;DHT22;28604;51.204;22.552;2023-06-22T03:01:38;22.80;80.40
42965;DHT22;28604;51.204;22.552;2023-06-22T03:04:09;22.80;80.20
42965;DHT22;28604;51.204;22.552;2023-06-22T03:06:36;22.80;80.30
42965;DHT22;28604;51.204;22.552;2023-06-22T03:09:04;22.80;80.50
42965;DHT22;28604;51.204;22.552;2023-06-22T03:11:33;22.80;80.80
42965;DHT22;28604;51.204;22.552;2023-06-22T03:14:00;22.80;80.40
42965;DHT22;28604;51.204;22.552;2023-06-22T03:16:27;22.80;80.80
42965;DHT22;28604;51.204;22.552;2023-06-22T03:18:55;22.80;80.50
42965;DHT22;28604;51.204;22.552;2023-06-22T03:21:28;22.80;80.60
42965;DHT22;28604;51.204;22.552;2023-06-22T03:23:54;22.80;81.40
42965;DHT22;28604;51.204;22.552;2023-06-22T03:26:20;22.90;81.00
42965;DHT22;28604;51.204;22.552;2023-06-22T03:28:46;22.90;80.50
42965;DHT22;28604;51.204;22.552;2023-06-22T03:31:12;22.90;80.40
42965;DHT22;28604;51.204;22.552;2023-06-22T03:33:40;22.90;81.20
42965;DHT22;28604;51.204;22.552;2023-06-22T03:36:06;23.00;80.20
42965;DHT22;28604;51.204;22.552;2023-06-22T03:38:32;23.00;80.80
42965;DHT22;28604;51.204;22.552;2023-06-22T03:40:59;22.90;81.20
42965;DHT22;28604;51.204;22.552;2023-06-22T03:43:25;23.00;81.40
42965;DHT22;28604;51.204;22.552;2023-06-22T03:45:51;23.00;81.20
42965;DHT22;28604;51.204;22.552;2023-06-22T03:48:17;23.00;80.20
42965;DHT22;28604;51.204;22.552;2023-06-22T03:50:43;23.00;81.20
42965;DHT22;28604;51.204;22.552;2023-06-22T03:53:10;23.10;81.20
42965;DHT22;28604;51.204;22.552;2023-06-22T03:55:36;23.10;81.20
42965;DHT22;28604;51.204;22.552;2023-06-22T04:03:33;23.20;81.10
42965;DHT22;28604;51.204;22.552;2023-06-22T04:05:59;23.20;80.40
42965;DHT22;28604;51.204;22.552;2023-06-22T04:08:25;23.30;80.10
42965;DHT22;28604;51.204;22.552;2023-06-22T04:10:51;23.30;80.60
42965;DHT22;28604;51.204;22.552;2023-06-22T04:13:17;23.40;80.60
42965;DHT22;28604;51.204;22.552;2023-06-22T04:15:43;23.40;80.70
42965;DHT22;28604;51.204;22.552;2023-06-22T04:18:09;23.40;81.10
42965;DHT22;28604;51.204;22.552;2023-06-22T04:20:35;23.50;80.60
42965;DHT22;28604;51.204;22.552;2023-06-22T04:23:01;23.60;80.20
42965;DHT22;28604;51.204;22.552;2023-06-22T04:25:27;23.60;80.40
42965;DHT22;28604;51.204;22.552;2023-06-22T04:27:53;23.70;80.40
42965;DHT22;28604;51.204;22.552;2023-06-22T04:30:19;23.80;79.80
42965;DHT22;28604;51.204;22.552;2023-06-22T04:32:45;23.80;80.40
42965;DHT22;28604;51.204;22.552;2023-06-22T04:35:11;23.80;80.40
42965;DHT22;28604;51.204;22.552;2023-06-22T04:37:37;23.90;80.10
42965;DHT22;28604;51.204;22.552;2023-06-22T04:40:05;23.90;80.00
42965;DHT22;28604;51.204;22.552;2023-06-22T04:42:34;23.90;79.80
42965;DHT22;28604;51.204;22.552;2023-06-22T04:45:00;23.90;79.60
42965;DHT22;28604;51.204;22.552;2023-06-22T04:47:26;24.00;79.40
42965;DHT22;28604;51.204;22.552;2023-06-22T04:49:52;24.00;79.60
42965;DHT22;28604;51.204;22.552;2023-06-22T04:52:18;24.10;80.20
42965;DHT22;28604;51.204;22.552;2023-06-22T04:54:46;24.10;79.80
42965;DHT22;28604;51.204;22.552;2023-06-22T04:57:16;24.10;79.70
42965;DHT22;28604;51.204;22.552;2023-06-22T04:59:42;24.20;79.70
42965;DHT22;28604;51.204;22.552;2023-06-22T05:02:08;24.20;79.90
42965;DHT22;28604;51.204;22.552;2023-06-22T05:04:35;24.30;79.60
42965;DHT22;28604;51.204;22.552;2023-06-22T05:07:04;24.40;79.50
42965;DHT22;28604;51.204;22.552;2023-06-22T05:09:31;24.40;78.90
42965;DHT22;28604;51.204;22.552;2023-06-22T05:11:57;24.50;78.50
42965;DHT22;28604;51.204;22.552;2023-06-22T05:14:23;24.60;79.10
42965;DHT22;28604;51.204;22.552;2023-06-22T05:16:49;24.70;78.80
42965;DHT22;28604;51.204;22.552;2023-06-22T05:19:17;24.70;78.70
42965;DHT22;28604;51.204;22.552;2023-06-22T05:21:43;24.80;78.40
42965;DHT22;28604;51.204;22.552;2023-06-22T05:24:09;24.80;78.60
42965;DHT22;28604;51.204;22.552;2023-06-22T05:26:35;24.90;78.70
42965;DHT22;28604;51.204;22.552;2023-06-22T05:29:02;24.90;78.50
42965;DHT22;28604;51.204;22.552;2023-06-22T05:31:29;24.90;78.50
42965;DHT22;28604;51.204;22.552;2023-06-22T05:33:56;24.90;78.60
42965;DHT22;28604;51.204;22.552;2023-06-22T05:36:22;25.00;78.70
42965;DHT22;28604;51.204;22.552;2023-06-22T05:38:52;25.00;78.80
42965;DHT22;28604;51.204;22.552;2023-06-22T05:41:18;25.00;78.60
42965;DHT22;28604;51.204;22.552;2023-06-22T05:43:44;25.00;78.40
42965;DHT22;28604;51.204;22.552;2023-06-22T05:46:10;25.00;78.70
42965;DHT22;28604;51.204;22.552;2023-06-22T05:48:36;25.00;78.80
42965;DHT22;28604;51.204;22.552;2023-06-22T05:51:02;25.00;78.90
42965;DHT22;28604;51.204;22.552;2023-06-22T05:53:29;25.00;79.00
42965;DHT22;28604;51.204;22.552;2023-06-22T05:55:54;25.10;79.30
42965;DHT22;28604;51.204;22.552;2023-06-22T05:58:21;25.20;78.90
42965;DHT22;28604;51.204;22.552;2023-06-22T06:00:46;25.20;78.80
42965;DHT22;28604;51.204;22.552;2023-06-22T06:03:13;25.30;78.50
42965;DHT22;28604;51.204;22.552;2023-06-22T06:05:43;25.40;78.40
42965;DHT22;28604;51.204;22.552;2023-06-22T06:08:10;25.50;78.20
42965;DHT22;28604;51.204;22.552;2023-06-22T06:19:02;25.80;77.50
42965;DHT22;28604;51.204;22.552;2023-06-22T06:21:28;25.90;77.50
42965;DHT22;28604;51.204;22.552;2023-06-22T06:23:54;26.00;77.50
42965;DHT22;28604;51.204;22.552;2023-06-22T06:26:20;26.00;77.50
42965;DHT22;28604;51.204;22.552;2023-06-22T06:28:54;26.10;77.50
42965;DHT22;28604;51.204;22.552;2023-06-22T06:31:20;26.30;76.60
42965;DHT22;28604;51.204;22.552;2023-06-22T06:33:47;26.40;76.70
42965;DHT22;28604;51.204;22.552;2023-06-22T06:36:13;26.50;76.80
42965;DHT22;28604;51.204;22.552;2023-06-22T06:38:39;26.50;77.00
42965;DHT22;28604;51.204;22.552;2023-06-22T06:41:05;26.60;77.00
42965;DHT22;28604;51.204;22.552;2023-06-22T06:43:31;26.70;76.40
42965;DHT22;28604;51.204;22.552;2023-06-22T06:45:57;27.10;76.20
42965;DHT22;28604;51.204;22.552;2023-06-22T06:48:23;27.50;75.50
42965;DHT22;28604;51.204;22.552;2023-06-22T06:50:49;28.10;74.70
42965;DHT22;28604;51.204;22.552;2023-06-22T06:53:15;28.50;73.20
42965;DHT22;28604;51.204;22.552;2023-06-22T06:55:41;29.10;72.30
42965;DHT22;28604;51.204;22.552;2023-06-22T06:58:07;29.70;70.60
42965;DHT22;28604;51.204;22.552;2023-06-22T07:00:35;30.20;69.20
42965;DHT22;28604;51.204;22.552;2023-06-22T07:03:01;30.70;67.40
42965;DHT22;28604;51.204;22.552;2023-06-22T07:05:28;31.20;65.70
42965;DHT22;28604;51.204;22.552;2023-06-22T07:07:53;31.60;65.50
42965;DHT22;28604;51.204;22.552;2023-06-22T07:10:20;31.80;65.00
42965;DHT22;28604;51.204;22.552;2023-06-22T07:12:46;32.20;64.40
42965;DHT22;28604;51.204;22.552;2023-06-22T07:15:13;32.50;63.20
42965;DHT22;28604;51.204;22.552;2023-06-22T07:17:39;32.60;63.20
42965;DHT22;28604;51.204;22.552;2023-06-22T07:20:09;32.80;62.80
42965;DHT22;28604;51.204;22.552;2023-06-22T07:22:39;33.10;62.30
42965;DHT22;28604;51.204;22.552;2023-06-22T07:25:06;33.20;62.40
42965;DHT22;28604;51.204;22.552;2023-06-22T07:27:37;33.50;62.40
42965;DHT22;28604;51.204;22.552;2023-06-22T07:30:04;33.40;61.70
42965;DHT22;28604;51.204;22.552;2023-06-22T07:32:30;33.40;62.10
42965;DHT22;28604;51.204;22.552;2023-06-22T07:34:56;33.20;62.30
42965;DHT22;28604;51.204;22.552;2023-06-22T07:37:22;33.00;62.30
42965;DHT22;28604;51.204;22.552;2023-06-22T07:39:48;32.90;62.90
42965;DHT22;28604;51.204;22.552;2023-06-22T07:42:16;32.80;63.20
42965;DHT22;28604;51.204;22.552;2023-06-22T07:44:44;32.80;63.70
42965;DHT22;28604;51.204;22.552;2023-06-22T07:47:10;32.80;63.90
42965;DHT22;28604;51.204;22.552;2023-06-22T07:49:36;33.10;63.00
42965;DHT22;28604;51.204;22.552;2023-06-22T07:52:02;33.40;63.00
42965;DHT22;28604;51.204;22.552;2023-06-22T07:54:29;33.70;62.20
42965;DHT22;28604;51.204;22.552;2023-06-22T07:56:54;33.90;61.70
42965;DHT22;28604;51.204;22.552;2023-06-22T07:59:21;34.10;61.50
42965;DHT22;28604;51.204;22.552;2023-06-22T08:01:46;34.20;61.70
42965;DHT22;28604;51.204;22.552;2023-06-22T08:04:15;34.50;61.10
42965;DHT22;28604;51.204;22.552;2023-06-22T08:06:41;34.90;60.40
42965;DHT22;28604;51.204;22.552;2023-06-22T08:09:07;35.10;60.00
42965;DHT22;28604;51.204;22.552;2023-06-22T08:11:33;35.40;59.80
42965;DHT22;28604;51.204;22.552;2023-06-22T08:13:59;35.70;59.20
42965;DHT22;28604;51.204;22.552;2023-06-22T08:16:25;35.90;59.00
42965;DHT22;28604;51.204;22.552;2023-06-22T08:18:51;36.20;58.60
42965;DHT22;28604;51.204;22.552;2023-06-22T08:21:17;36.50;57.90
42965;DHT22;28604;51.204;22.552;2023-06-22T08:23:43;36.60;57.40
42965;DHT22;28604;51.204;22.552;2023-06-22T08:26:09;36.90;57.20
42965;DHT22;28604;51.204;22.552;2023-06-22T08:28:35;37.00;57.40
42965;DHT22;28604;51.204;22.552;2023-06-22T08:31:02;37.30;56.50
42965;DHT22;28604;51.204;22.552;2023-06-22T08:33:28;37.70;55.90
42965;DHT22;28604;51.204;22.552;2023-06-22T08:35:57;37.80;55.40
42965;DHT22;28604;51.204;22.552;2023-06-22T08:38:24;38.10;55.10
42965;DHT22;28604;51.204;22.552;2023-06-22T08:40:50;38.20;55.10
42965;DHT22;28604;51.204;22.552;2023-06-22T08:43:16;38.40;54.10
42965;DHT22;28604;51.204;22.552;2023-06-22T08:45:42;38.50;54.10
42965;DHT22;28604;51.204;22.552;2023-06-22T08:48:08;38.70;53.90
42965;DHT22;28604;51.204;22.552;2023-06-22T08:50:34;38.90;52.80
42965;DHT22;28604;51.204;22.552;2023-06-22T08:53:00;39.20;52.90
42965;DHT22;28604;51.204;22.552;2023-06-22T08:55:26;39.20;52.60
42965;DHT22;28604;51.204;22.552;2023-06-22T08:57:52;39.30;52.60
42965;DHT22;28604;51.204;22.552;2023-06-22T09:00:18;39.20;53.10
42965;DHT22;28604;51.204;22.552;2023-06-22T09:02:46;39.20;53.10
42965;DHT22;28604;51.204;22.552;2023-06-22T09:05:13;39.40;52.90
42965;DHT22;28604;51.204;22.552;2023-06-22T09:07:39;39.60;52.40
42965;DHT22;28604;51.204;22.552;2023-06-22T09:10:06;39.80;52.70
42965;DHT22;28604;51.204;22.552;2023-06-22T09:12:32;39.80;51.90
42965;DHT22;28604;51.204;22.552;2023-06-22T09:14:59;39.80;52.90
42965;DHT22;28604;51.204;22.552;2023-06-22T09:17:29;40.00;52.40
42965;DHT22;28604;51.204;22.552;2023-06-22T09:19:55;40.20;52.20
42965;DHT22;28604;51.204;22.552;2023-06-22T09:22:21;40.00;52.20
42965;DHT22;28604;51.204;22.552;2023-06-22T09:24:47;39.80;51.90
42965;DHT22;28604;51.204;22.552;2023-06-22T09:27:13;39.60;52.30
42965;DHT22;28604;51.204;22.552;2023-06-22T09:29:39;39.30;52.70
42965;DHT22;28604;51.204;22.552;2023-06-22T09:32:06;38.90;53.40
42965;DHT22;28604;51.204;22.552;2023-06-22T09:34:32;38.50;53.90
42965;DHT22;28604;51.204;22.552;2023-06-22T09:36:58;38.30;54.30
42965;DHT22;28604;51.204;22.552;2023-06-22T09:39:26;37.90;54.50
42965;DHT22;28604;51.204;22.552;2023-06-22T09:41:52;37.70;54.80
42965;DHT22;28604;51.204;22.552;2023-06-22T09:44:18;37.60;54.70
42965;DHT22;28604;51.204;22.552;2023-06-22T09:46:44;37.70;55.10
42965;DHT22;28604;51.204;22.552;2023-06-22T09:49:10;37.80;55.40
42965;DHT22;28604;51.204;22.552;2023-06-22T09:51:36;37.80;55.10
42965;DHT22;28604;51.204;22.552;2023-06-22T09:54:02;37.80;55.50
42965;DHT22;28604;51.204;22.552;2023-06-22T09:56:28;37.70;54.70
42965;DHT22;28604;51.204;22.552;2023-06-22T09:58:55;37.80;54.50
42965;DHT22;28604;51.204;22.552;2023-06-22T10:01:21;38.00;55.00
42965;DHT22;28604;51.204;22.552;2023-06-22T10:03:48;38.30;54.40
42965;DHT22;28604;51.204;22.552;2023-06-22T10:06:14;38.30;54.30
42965;DHT22;28604;51.204;22.552;2023-06-22T10:08:40;38.30;54.20
42965;DHT22;28604;51.204;22.552;2023-06-22T10:11:06;38.40;53.80
42965;DHT22;28604;51.204;22.552;2023-06-22T10:13:32;38.60;53.40
42965;DHT22;28604;51.204;22.552;2023-06-22T10:15:58;38.80;53.00
42965;DHT22;28604;51.204;22.552;2023-06-22T10:18:24;39.00;52.70
42965;DHT22;28604;51.204;22.552;2023-06-22T10:20:51;39.00;52.70
42965;DHT22;28604;51.204;22.552;2023-06-22T10:23:18;38.80;53.40
42965;DHT22;28604;51.204;22.552;2023-06-22T10:25:46;38.40;53.80
42965;DHT22;28604;51.204;22.552;2023-06-22T10:28:12;38.20;53.80
42965;DHT22;28604;51.204;22.552;2023-06-22T10:30:40;37.90;53.20
42965;DHT22;28604;51.204;22.552;2023-06-22T10:33:09;37.90;53.70
42965;DHT22;28604;51.204;22.552;2023-06-22T10:35:36;38.10;52.50
42965;DHT22;28604;51.204;22.552;2023-06-22T10:38:04;38.20;52.40
42965;DHT22;28604;51.204;22.552;2023-06-22T10:40:30;38.50;51.70
42965;DHT22;28604;51.204;22.552;2023-06-22T10:42:56;38.70;52.30
42965;DHT22;28604;51.204;22.552;2023-06-22T10:45:22;38.70;52.60
42965;DHT22;28604;51.204;22.552;2023-06-22T10:47:48;38.70;52.90
42965;DHT22;28604;51.204;22.552;2023-06-22T10:50:14;38.50;53.00
42965;DHT22;28604;51.204;22.552;2023-06-22T10:52:40;38.60;52.20
42965;DHT22;28604;51.204;22.552;2023-06-22T10:55:10;38.90;52.90
42965;DHT22;28604;51.204;22.552;2023-06-22T10:57:36;38.70;53.30
42965;DHT22;28604;51.204;22.552;2023-06-22T11:00:03;38.60;53.30
42965;DHT22;28604;51.204;22.552;2023-06-22T11:02:32;38.60;53.30
42965;DHT22;28604;51.204;22.552;2023-06-22T11:04:58;38.40;53.10
42965;DHT22;28604;51.204;22.552;2023-06-22T11:07:26;38.40;53.20
42965;DHT22;28604;51.204;22.552;2023-06-22T11:09:54;38.20;53.70
42965;DHT22;28604;51.204;22.552;2023-06-22T11:12:20;38.20;54.10
42965;DHT22;28604;51.204;22.552;2023-06-22T11:14:46;38.20;54.40
42965;DHT22;28604;51.204;22.552;2023-06-22T11:17:12;38.30;53.20
42965;DHT22;28604;51.204;22.552;2023-06-22T11:19:39;38.30;52.70
42965;DHT22;28604;51.204;22.552;2023-06-22T11:22:05;38.30;52.00
42965;DHT22;28604;51.204;22.552;2023-06-22T11:24:31;38.20;51.80
42965;DHT22;28604;51.204;22.552;2023-06-22T11:26:57;38.20;51.60
42965;DHT22;28604;51.204;22.552;2023-06-22T11:29:23;38.10;51.80
42965;DHT22;28604;51.204;22.552;2023-06-22T11:31:49;38.10;52.40
42965;DHT22;28604;51.204;22.552;2023-06-22T11:34:15;38.10;53.30
42965;DHT22;28604;51.204;22.552;2023-06-22T11:36:41;38.00;53.10
42965;DHT22;28604;51.204;22.552;2023-06-22T11:39:08;37.80;52.80
42965;DHT22;28604;51.204;22.552;2023-06-22T11:41:35;37.90;52.70
42965;DHT22;28604;51.204;22.552;2023-06-22T11:44:01;37.70;52.80
42965;DHT22;28604;51.204;22.552;2023-06-22T11:46:27;37.70;52.60
42965;DHT22;28604;51.204;22.552;2023-06-22T11:48:53;37.70;52.10
42965;DHT22;28604;51.204;22.552;2023-06-22T11:51:19;37.70;52.60
42965;DHT22;28604;51.204;22.552;2023-06-22T11:53:45;37.60;53.00
42965;DHT22;28604;51.204;22.552;2023-06-22T11:56:10;37.50;53.00
42965;DHT22;28604;51.204;22.552;2023-06-22T11:58:36;37.50;52.30
42965;DHT22;28604;51.204;22.552;2023-06-22T12:01:02;37.50;52.30
42965;DHT22;28604;51.204;22.552;2023-06-22T12:03:28;37.50;52.30
42965;DHT22;28604;51.204;22.552;2023-06-22T12:05:55;37.60;52.70
42965;DHT22;28604;51.204;22.552;2023-06-22T12:08:21;37.60;51.90
42965;DHT22;28604;51.204;22.552;2023-06-22T12:10:50;37.50;51.90
42965;DHT22;28604;51.204;22.552;2023-06-22T12:13:16;37.60;51.10
42965;DHT22;28604;51.204;22.552;2023-06-22T12:15:42;37.60;50.50
42965;DHT22;28604;51.204;22.552;2023-06-22T12:18:08;37.60;51.10
42965;DHT22;28604;51.204;22.552;2023-06-22T12:20:34;37.70;50.60
42965;DHT22;28604;51.204;22.552;2023-06-22T12:23:01;37.80;50.60
42965;DHT22;28604;51.204;22.552;2023-06-22T12:25:27;37.80;50.80
42965;DHT22;28604;51.204;22.552;2023-06-22T12:27:53;37.80;50.90
42965;DHT22;28604;51.204;22.552;2023-06-22T12:30:19;37.70;51.10
42965;DHT22;28604;51.204;22.552;2023-06-22T12:32:46;37.70;51.00
42965;DHT22;28604;51.204;22.552;2023-06-22T12:35:12;37.60;50.70
42965;DHT22;28604;51.204;22.552;2023-06-22T12:37:43;37.60;50.90
42965;DHT22;28604;51.204;22.552;2023-06-22T12:40:09;37.60;51.40
42965;DHT22;28604;51.204;22.552;2023-06-22T12:42:35;37.60;51.50
42965;DHT22;28604;51.204;22.552;2023-06-22T12:45:01;37.60;51.20
42965;DHT22;28604;51.204;22.552;2023-06-22T12:47:27;37.50;51.50
42965;DHT22;28604;51.204;22.552;2023-06-22T12:49:53;37.50;51.30
42965;DHT22;28604;51.204;22.552;2023-06-22T12:52:19;37.40;51.30
42965;DHT22;28604;51.204;22.552;2023-06-22T12:54:45;37.50;51.40
42965;DHT22;28604;51.204;22.552;2023-06-22T12:57:11;37.50;51.20
42965;DHT22;28604;51.204;22.552;2023-06-22T12:59:37;37.40;51.40
42965;DHT22;28604;51.204;22.552;2023-06-22T13:02:03;37.40;51.70
42965;DHT22;28604;51.204;22.552;2023-06-22T13:04:29;37.40;51.10
42965;DHT22;28604;51.204;22.552;2023-06-22T13:06:55;37.30;51.20
42965;DHT22;28604;51.204;22.552;2023-06-22T13:09:21;37.20;51.90
42965;DHT22;28604;51.204;22.552;2023-06-22T13:11:47;37.10;51.70
42965;DHT22;28604;51.204;22.552;2023-06-22T13:14:13;37.10;51.70
42965;DHT22;28604;51.204;22.552;2023-06-22T13:16:39;37.00;51.80
42965;DHT22;28604;51.204;22.552;2023-06-22T13:19:05;36.90;51.60
42965;DHT22;28604;51.204;22.552;2023-06-22T13:21:31;37.00;51.90
42965;DHT22;28604;51.204;22.552;2023-06-22T13:23:57;36.90;51.50
42965;DHT22;28604;51.204;22.552;2023-06-22T13:26:24;36.80;51.70
42965;DHT22;28604;51.204;22.552;2023-06-22T13:28:50;36.80;52.20
42965;DHT22;28604;51.204;22.552;2023-06-22T13:31:16;36.70;52.40
42965;DHT22;28604;51.204;22.552;2023-06-22T13:33:41;36.70;52.70
42965;DHT22;28604;51.204;22.552;2023-06-22T13:36:07;36.60;52.50
42965;DHT22;28604;51.204;22.552;2023-06-22T13:38:35;36.50;52.50
42965;DHT22;28604;51.204;22.552;2023-06-22T13:41:05;36.60;52.60
42965;DHT22;28604;51.204;22.552;2023-06-22T13:43:31;36.50;52.20
42965;DHT22;28604;51.204;22.552;2023-06-22T13:45:57;36.50;52.40
42965;DHT22;28604;51.204;22.552;2023-06-22T13:48:23;36.50;52.10
42965;DHT22;28604;51.204;22.552;2023-06-22T13:50:52;36.50;51.30
42965;DHT22;28604;51.204;22.552;2023-06-22T13:53:18;36.50;50.90
42965;DHT22;28604;51.204;22.552;2023-06-22T13:55:44;36.50;50.90
42965;DHT22;28604;51.204;22.552;2023-06-22T13:58:10;36.40;50.60
42965;DHT22;28604;51.204;22.552;2023-06-22T14:00:36;36.30;51.10
42965;DHT22;28604;51.204;22.552;2023-06-22T14:03:02;36.20;51.30
42965;DHT22;28604;51.204;22.552;2023-06-22T14:05:28;36.10;51.30
42965;DHT22;28604;51.204;22.552;2023-06-22T14:07:54;36.10;51.00
42965;DHT22;28604;51.204;22.552;2023-06-22T14:10:20;36.00;50.20
42965;DHT22;28604;51.204;22.552;2023-06-22T14:12:46;36.00;50.20
42965;DHT22;28604;51.204;22.552;2023-06-22T14:15:12;35.90;49.90
42965;DHT22;28604;51.204;22.552;2023-06-22T14:17:38;35.80;49.80
42965;DHT22;28604;51.204;22.552;2023-06-22T14:20:05;35.80;49.30
42965;DHT22;28604;51.204;22.552;2023-06-22T14:22:33;35.70;49.00
42965;DHT22;28604;51.204;22.552;2023-06-22T14:25:01;35.60;49.00
42965;DHT22;28604;51.204;22.552;2023-06-22T14:27:27;35.60;49.20
42965;DHT22;28604;51.204;22.552;2023-06-22T14:29:53;35.60;49.40
42965;DHT22;28604;51.204;22.552;2023-06-22T14:32:19;35.70;49.80
42965;DHT22;28604;51.204;22.552;2023-06-22T14:34:45;35.60;50.00
42965;DHT22;28604;51.204;22.552;2023-06-22T14:37:11;35.50;49.60
42965;DHT22;28604;51.204;22.552;2023-06-22T14:39:38;35.50;50.00
42965;DHT22;28604;51.204;22.552;2023-06-22T14:42:08;35.50;49.50
42965;DHT22;28604;51.204;22.552;2023-06-22T14:44:34;35.50;49.30
42965;DHT22;28604;51.204;22.552;2023-06-22T14:47:00;35.40;49.50
42965;DHT22;28604;51.204;22.552;2023-06-22T14:49:26;35.40;50.40
42965;DHT22;28604;51.204;22.552;2023-06-22T14:51:52;35.30;50.90
42965;DHT22;28604;51.204;22.552;2023-06-22T14:54:18;35.30;51.10
42965;DHT22;28604;51.204;22.552;2023-06-22T14:56:44;35.20;50.90
42965;DHT22;28604;51.204;22.552;2023-06-22T14:59:10;35.20;50.60
42965;DHT22;28604;51.204;22.552;2023-06-22T15:01:36;35.00;50.60
42965;DHT22;28604;51.204;22.552;2023-06-22T15:04:02;35.00;50.40
42965;DHT22;28604;51.204;22.552;2023-06-22T15:06:28;34.90;50.40
42965;DHT22;28604;51.204;22.552;2023-06-22T15:08:54;34.90;49.70
42965;DHT22;28604;51.204;22.552;2023-06-22T15:11:20;34.80;49.90
42965;DHT22;28604;51.204;22.552;2023-06-22T15:13:47;34.70;50.40
42965;DHT22;28604;51.204;22.552;2023-06-22T15:16:12;34.60;50.30
42965;DHT22;28604;51.204;22.552;2023-06-22T15:18:39;34.50;50.20
42965;DHT22;28604;51.204;22.552;2023-06-22T15:21:06;34.60;50.30
42965;DHT22;28604;51.204;22.552;2023-06-22T15:23:33;34.50;50.10
42965;DHT22;28604;51.204;22.552;2023-06-22T15:26:02;34.30;49.40
42965;DHT22;28604;51.204;22.552;2023-06-22T15:28:30;34.30;49.10
42965;DHT22;28604;51.204;22.552;2023-06-22T15:30:58;34.20;48.90
42965;DHT22;28604;51.204;22.552;2023-06-22T15:33:24;34.20;49.30
42965;DHT22;28604;51.204;22.552;2023-06-22T15:35:50;34.10;49.60